createdAt,value
2017-09-08T00:00:17.777Z,74.23
2017-09-08T00:00:58.321Z,74.04
2017-09-08T00:01:38.871Z,73.75
2017-09-08T00:02:19.464Z,74.33
2017-09-08T00:02:59.947Z,74.23
2017-09-08T00:03:40.483Z,73.37
2017-09-08T00:04:21.034Z,74.04
2017-09-08T00:05:01.580Z,73.72
2017-09-08T00:05:42.098Z,74.29
2017-09-08T00:06:22.639Z,73.91
2017-09-08T00:07:03.175Z,74.87
2017-09-08T00:07:43.779Z,75.45
2017-09-08T00:08:24.347Z,75.45
2017-09-08T00:09:04.850Z,75.54
2017-09-08T00:09:45.384Z,75.45
2017-09-08T00:10:25.999Z,75.35
2017-09-08T00:11:06.461Z,75.25
2017-09-08T00:11:47.047Z,75.15
2017-09-08T00:12:27.647Z,75.15
2017-09-08T00:13:08.179Z,75.15
2017-09-08T00:13:48.751Z,75.54
2017-09-08T00:14:29.266Z,75.06
2017-09-08T00:15:09.788Z,74.68
2017-09-08T00:15:50.368Z,74.58
2017-09-08T00:16:30.872Z,74.71
2017-09-08T00:17:11.567Z,74.9
2017-09-08T00:17:52.036Z,74.71
2017-09-08T00:18:32.601Z,74.68
2017-09-08T00:19:13.148Z,74.81
2017-09-08T00:19:53.697Z,74.77
2017-09-08T00:20:34.223Z,75.1
2017-09-08T00:21:14.787Z,74.52
2017-09-08T00:21:55.348Z,74.33
2017-09-08T00:22:35.908Z,74.19
2017-09-08T00:23:16.478Z,74.39
2017-09-08T00:23:57.027Z,74.48
2017-09-08T00:24:37.550Z,74.29
2017-09-08T00:25:18.144Z,74.48
2017-09-08T00:25:58.688Z,74.19
2017-09-08T00:26:39.259Z,74.19
2017-09-08T00:27:19.744Z,74.39
2017-09-08T00:28:00.375Z,74.19
2017-09-08T00:28:40.894Z,74.01
2017-09-08T00:29:21.407Z,73.81
2017-09-08T00:30:01.966Z,74.77
2017-09-08T00:30:42.459Z,74.77
2017-09-08T00:31:22.990Z,74.58
2017-09-08T00:32:03.551Z,74.77
2017-09-08T00:32:44.076Z,74.48
2017-09-08T00:33:24.614Z,74.58
2017-09-08T00:34:05.185Z,74.96
2017-09-08T00:34:45.740Z,74.96
2017-09-08T00:35:26.352Z,74.96
2017-09-08T00:36:06.844Z,74.96
2017-09-08T00:36:47.397Z,74.87
2017-09-08T00:37:27.948Z,74.87
2017-09-08T00:38:08.492Z,74.68
2017-09-08T00:38:49.011Z,74.71
2017-09-08T00:39:29.551Z,74.87
2017-09-08T00:40:10.112Z,74.96
2017-09-08T00:40:50.686Z,74.81
2017-09-08T00:41:31.192Z,74.48
2017-09-08T00:42:11.764Z,74.23
2017-09-08T00:42:52.310Z,73.52
2017-09-08T00:43:32.875Z,74.52
2017-09-08T00:44:13.440Z,74.52
2017-09-08T00:44:54.062Z,74.29
2017-09-08T00:45:34.607Z,74.39
2017-09-08T00:46:15.159Z,74.43
2017-09-08T00:46:55.736Z,74.33
2017-09-08T00:47:36.276Z,74.43
2017-09-08T00:48:16.811Z,74.04
2017-09-08T00:48:57.359Z,73.94
2017-09-08T00:49:37.921Z,74.33
2017-09-08T00:50:18.520Z,74.52
2017-09-08T00:50:59.060Z,73.94
2017-09-08T00:51:39.612Z,74.43
2017-09-08T00:52:20.162Z,74.52
2017-09-08T00:53:00.708Z,73.94
2017-09-08T00:53:41.294Z,74.43
2017-09-08T00:54:21.802Z,74.23
2017-09-08T00:55:02.401Z,73.72
2017-09-08T00:55:42.900Z,74.48
2017-09-08T00:56:23.419Z,74.43
2017-09-08T00:57:03.960Z,74.48
2017-09-08T00:57:44.461Z,74.58
2017-09-08T00:58:25.132Z,74.58
2017-09-08T00:59:05.710Z,74.77
2017-09-08T00:59:46.346Z,74.58
2017-09-08T01:00:27.036Z,74.39
2017-09-08T01:01:07.652Z,74.58
2017-09-08T01:01:48.222Z,74.58
2017-09-08T01:02:28.804Z,74.48
2017-09-08T01:03:09.371Z,75.15
2017-09-08T01:03:49.929Z,75.15
2017-09-08T01:04:30.462Z,74.77
2017-09-08T01:05:11.028Z,74.48
2017-09-08T01:05:51.558Z,74.81
2017-09-08T01:06:32.110Z,74.52
2017-09-08T01:07:12.670Z,74.9
2017-09-08T01:07:53.246Z,74.62
2017-09-08T01:08:33.813Z,74.23
2017-09-08T01:09:14.369Z,74.52
2017-09-08T01:09:54.956Z,74.43
2017-09-08T01:10:35.476Z,74.04
2017-09-08T01:11:16.036Z,74.23
2017-09-08T01:11:56.554Z,74.13
2017-09-08T01:12:37.132Z,74.43
2017-09-08T01:13:17.679Z,74.33
2017-09-08T01:13:58.245Z,74.43
2017-09-08T01:14:38.814Z,73.85
2017-09-08T01:15:19.315Z,73.94
2017-09-08T01:15:59.932Z,74.04
2017-09-08T01:16:40.430Z,74.33
2017-09-08T01:17:21.021Z,74.04
2017-09-08T01:18:01.518Z,73.85
2017-09-08T01:18:42.065Z,74.23
2017-09-08T01:19:22.644Z,74.04
2017-09-08T01:20:03.184Z,74.13
2017-09-08T01:20:43.682Z,73.94
2017-09-08T01:21:24.254Z,73.85
2017-09-08T01:22:04.789Z,74.04
2017-09-08T01:22:45.307Z,74.13
2017-09-08T01:23:25.912Z,74.33
2017-09-08T01:24:06.469Z,74.33
2017-09-08T01:24:47.028Z,73.85
2017-09-08T01:25:27.591Z,73.94
2017-09-08T01:26:08.167Z,73.85
2017-09-08T01:26:48.717Z,74.04
2017-09-08T01:27:29.284Z,74.04
2017-09-08T01:28:09.830Z,74.13
2017-09-08T01:28:50.426Z,73.94
2017-09-08T01:29:30.963Z,73.94
2017-09-08T01:30:11.501Z,73.94
2017-09-08T01:30:52.037Z,73.46
2017-09-08T01:31:32.725Z,73.94
2017-09-08T01:32:13.274Z,74.04
2017-09-08T01:32:53.834Z,73.75
2017-09-08T01:33:34.401Z,73.94
2017-09-08T01:34:14.973Z,74.13
2017-09-08T01:34:55.524Z,74.04
2017-09-08T01:35:36.179Z,73.56
2017-09-08T01:36:16.726Z,73.94
2017-09-08T01:36:57.311Z,73.08
2017-09-08T01:37:37.894Z,73.46
2017-09-08T01:38:18.471Z,73.18
2017-09-08T01:38:59.044Z,72.99
2017-09-08T01:39:39.623Z,73.37
2017-09-08T01:40:20.178Z,74.13
2017-09-08T01:41:00.728Z,73.94
2017-09-08T01:41:41.299Z,74.04
2017-09-08T01:42:21.853Z,73.94
2017-09-08T01:43:02.433Z,73.75
2017-09-08T01:43:42.981Z,73.27
2017-09-08T01:44:23.557Z,73.18
2017-09-08T01:45:04.101Z,73.37
2017-09-08T01:45:44.648Z,73.37
2017-09-08T01:46:25.205Z,73.46
2017-09-08T01:47:05.767Z,73.37
2017-09-08T01:47:46.298Z,73.08
2017-09-08T01:48:26.843Z,73.37
2017-09-08T01:49:07.416Z,73.18
2017-09-08T01:49:47.985Z,73.46
2017-09-08T01:50:28.527Z,74.13
2017-09-08T01:51:09.086Z,74.13
2017-09-08T01:51:49.607Z,73.85
2017-09-08T01:52:30.142Z,74.13
2017-09-08T01:53:10.662Z,73.85
2017-09-08T01:53:51.217Z,73.94
2017-09-08T01:54:31.767Z,74.13
2017-09-08T01:55:12.330Z,74.04
2017-09-08T01:55:52.885Z,74.43
2017-09-08T01:56:33.455Z,73.66
2017-09-08T01:57:14.024Z,74.29
2017-09-08T01:57:54.565Z,74.33
2017-09-08T01:58:35.119Z,74.58
2017-09-08T01:59:15.662Z,74.58
2017-09-08T01:59:56.210Z,75.54
2017-09-08T02:00:36.738Z,75.63
2017-09-08T02:01:17.278Z,75.15
2017-09-08T02:01:57.824Z,75.06
2017-09-08T02:02:38.376Z,75.25
2017-09-08T02:03:18.928Z,75.25
2017-09-08T02:03:59.492Z,74.96
2017-09-08T02:04:40.069Z,75.06
2017-09-08T02:05:20.659Z,75.15
2017-09-08T02:06:01.225Z,75.45
2017-09-08T02:06:41.825Z,75.45
2017-09-08T02:07:22.369Z,75.45
2017-09-08T02:08:02.942Z,75.25
2017-09-08T02:08:43.490Z,75.45
2017-09-08T02:09:24.041Z,75.15
2017-09-08T02:10:04.599Z,75.35
2017-09-08T02:10:45.152Z,75.06
2017-09-08T02:11:25.694Z,75.15
2017-09-08T02:12:06.290Z,75.25
2017-09-08T02:12:46.772Z,75.06
2017-09-08T02:13:27.315Z,75.15
2017-09-08T02:14:07.832Z,74.87
2017-09-08T02:14:48.388Z,75.06
2017-09-08T02:15:28.970Z,74.39
2017-09-08T02:16:09.519Z,74.58
2017-09-08T02:16:50.067Z,74.77
2017-09-08T02:17:30.633Z,74.87
2017-09-08T02:18:11.173Z,74.77
2017-09-08T02:18:51.728Z,74.68
2017-09-08T02:19:32.261Z,74.48
2017-09-08T02:20:12.824Z,74.68
2017-09-08T02:20:53.360Z,74.77
2017-09-08T02:21:33.903Z,74.96
2017-09-08T02:22:14.441Z,75.15
2017-09-08T02:22:55.012Z,75.63
2017-09-08T02:23:36.317Z,75.79
2017-09-08T02:24:16.169Z,75.98
2017-09-08T02:24:56.741Z,75.89
2017-09-08T02:25:37.302Z,76.56
2017-09-08T02:26:17.841Z,76.21
2017-09-08T02:26:58.399Z,76.21
2017-09-08T02:27:38.943Z,76.56
2017-09-08T02:28:19.509Z,76.17
2017-09-08T02:29:00.061Z,76.17
2017-09-08T02:29:40.608Z,76.27
2017-09-08T02:30:21.151Z,76.65
2017-09-08T02:31:01.717Z,76.84
2017-09-08T02:31:42.272Z,76.84
2017-09-08T02:32:22.820Z,76.07
2017-09-08T02:33:03.380Z,76.27
2017-09-08T02:33:43.941Z,76.56
2017-09-08T02:34:24.474Z,76.21
2017-09-08T02:35:04.995Z,76.59
2017-09-08T02:35:45.555Z,76.17
2017-09-08T02:36:26.113Z,76.27
2017-09-08T02:37:06.656Z,76.4
2017-09-08T02:37:47.217Z,76.37
2017-09-08T02:38:27.746Z,75.98
2017-09-08T02:39:08.313Z,76.84
2017-09-08T02:39:48.873Z,76.79
2017-09-08T02:40:29.436Z,77.17
2017-09-08T02:41:09.957Z,76.75
2017-09-08T02:41:50.522Z,76.88
2017-09-08T02:42:31.085Z,76.65
2017-09-08T02:43:11.634Z,77.04
2017-09-08T02:43:52.213Z,77.61
2017-09-08T02:44:32.732Z,77.33
2017-09-08T02:45:13.280Z,77.51
2017-09-08T02:45:53.827Z,78.09
2017-09-08T02:46:34.382Z,78
2017-09-08T02:47:14.935Z,78.25
2017-09-08T02:47:55.476Z,78.63
2017-09-08T02:48:36.017Z,78.57
2017-09-08T02:49:16.574Z,78.38
2017-09-08T02:49:57.170Z,77.8
2017-09-08T02:50:37.674Z,78
2017-09-08T02:51:18.221Z,78.19
2017-09-08T02:51:58.781Z,77.8
2017-09-08T02:52:39.334Z,78.09
2017-09-08T02:53:19.877Z,78.38
2017-09-08T02:54:00.435Z,78.57
2017-09-08T02:54:40.995Z,78.28
2017-09-08T02:55:21.582Z,78
2017-09-08T02:56:02.103Z,77.9
2017-09-08T02:56:42.638Z,78.09
2017-09-08T02:57:23.207Z,78
2017-09-08T02:58:03.743Z,78.09
2017-09-08T02:58:44.291Z,78
2017-09-08T02:59:24.869Z,78.09
2017-09-08T03:00:05.371Z,78.09
2017-09-08T03:00:45.913Z,77.42
2017-09-08T03:01:26.518Z,77.61
2017-09-08T03:02:07.074Z,78.38
2017-09-08T03:02:47.629Z,77.8
2017-09-08T03:03:28.188Z,78.09
2017-09-08T03:04:08.759Z,77.76
2017-09-08T03:04:49.309Z,77.86
2017-09-08T03:05:29.871Z,78.34
2017-09-08T03:06:10.448Z,78.63
2017-09-08T03:06:50.983Z,78.72
2017-09-08T03:07:31.540Z,78.67
2017-09-08T03:08:12.123Z,78.44
2017-09-08T03:08:52.672Z,78.53
2017-09-08T03:09:33.226Z,78.53
2017-09-08T03:10:13.779Z,78.53
2017-09-08T03:10:54.328Z,78.47
2017-09-08T03:11:34.914Z,78.67
2017-09-08T03:12:15.440Z,78.19
2017-09-08T03:12:56.015Z,78.57
2017-09-08T03:13:36.578Z,77.33
2017-09-08T03:14:17.127Z,77.9
2017-09-08T03:14:57.647Z,77.9
2017-09-08T03:15:38.224Z,77.51
2017-09-08T03:16:18.778Z,77.71
2017-09-08T03:16:59.295Z,77.23
2017-09-08T03:17:39.875Z,77.04
2017-09-08T03:18:20.396Z,77.51
2017-09-08T03:19:00.905Z,77.51
2017-09-08T03:19:41.470Z,77.04
2017-09-08T03:20:21.989Z,77.13
2017-09-08T03:21:02.552Z,77.33
2017-09-08T03:21:43.099Z,77.8
2017-09-08T03:22:23.655Z,78
2017-09-08T03:23:04.234Z,77.9
2017-09-08T03:23:44.794Z,78.09
2017-09-08T03:24:25.352Z,78
2017-09-08T03:25:05.913Z,78.28
2017-09-08T03:25:46.484Z,77.9
2017-09-08T03:26:27.062Z,78.28
2017-09-08T03:27:07.609Z,77.95
2017-09-08T03:27:48.152Z,78.38
2017-09-08T03:28:28.715Z,78
2017-09-08T03:29:09.269Z,78.09
2017-09-08T03:29:49.814Z,78
2017-09-08T03:30:30.380Z,77.71
2017-09-08T03:31:10.948Z,77.42
2017-09-08T03:31:51.504Z,78
2017-09-08T03:32:32.066Z,78.38
2017-09-08T03:33:12.609Z,77.33
2017-09-08T03:33:53.148Z,78
2017-09-08T03:34:33.701Z,78.38
2017-09-08T03:35:14.244Z,77.9
2017-09-08T03:35:54.791Z,78.09
2017-09-08T03:36:35.344Z,78.09
2017-09-08T03:37:15.887Z,77.95
2017-09-08T03:37:56.439Z,78.19
2017-09-08T03:38:36.988Z,78.47
2017-09-08T03:39:17.555Z,78.19
2017-09-08T03:39:58.086Z,78
2017-09-08T03:40:38.663Z,78.25
2017-09-08T03:41:19.216Z,78.05
2017-09-08T03:41:59.811Z,78
2017-09-08T03:42:40.379Z,78.09
2017-09-08T03:43:20.932Z,77.71
2017-09-08T03:44:01.475Z,78.28
2017-09-08T03:44:42.024Z,77.9
2017-09-08T03:45:22.597Z,77.61
2017-09-08T03:46:03.129Z,77.8
2017-09-08T03:46:43.691Z,77.9
2017-09-08T03:47:24.843Z,78.28
2017-09-08T03:48:04.812Z,78.25
2017-09-08T03:48:45.358Z,78.05
2017-09-08T03:49:25.932Z,78.25
2017-09-08T03:50:06.471Z,78.09
2017-09-08T03:50:47.029Z,78.28
2017-09-08T03:51:27.563Z,77.86
2017-09-08T03:52:08.208Z,77.86
2017-09-08T03:52:48.889Z,78.82
2017-09-08T03:53:29.370Z,78.82
2017-09-08T03:54:09.881Z,78.63
2017-09-08T03:54:50.432Z,78.63
2017-09-08T03:55:30.979Z,78.82
2017-09-08T03:56:11.538Z,78.53
2017-09-08T03:56:52.090Z,78.63
2017-09-08T03:57:32.613Z,78.63
2017-09-08T03:58:13.163Z,78.34
2017-09-08T03:58:53.714Z,78.25
2017-09-08T03:59:34.260Z,78.34
2017-09-08T04:00:14.825Z,79.01
2017-09-08T04:00:55.374Z,78.82
2017-09-08T04:01:35.900Z,78.92
2017-09-08T04:02:16.454Z,78.72
2017-09-08T04:02:57.023Z,78.92
2017-09-08T04:03:37.594Z,78.34
2017-09-08T04:04:18.141Z,78.72
2017-09-08T04:04:58.696Z,78.25
2017-09-08T04:05:39.251Z,78.63
2017-09-08T04:06:19.803Z,78.72
2017-09-08T04:07:00.361Z,78.34
2017-09-08T04:07:40.923Z,78.34
2017-09-08T04:08:21.451Z,78.34
2017-09-08T04:09:01.983Z,78.92
2017-09-08T04:09:42.553Z,78.63
2017-09-08T04:10:23.095Z,79.3
2017-09-08T04:11:03.661Z,79.3
2017-09-08T04:11:44.207Z,79.59
2017-09-08T04:12:24.757Z,79.39
2017-09-08T04:13:05.327Z,79.68
2017-09-08T04:13:45.874Z,79.68
2017-09-08T04:14:26.388Z,79.21
2017-09-08T04:15:06.932Z,79.59
2017-09-08T04:15:47.510Z,79.49
2017-09-08T04:16:28.060Z,79.49
2017-09-08T04:17:08.602Z,79.39
2017-09-08T04:17:49.170Z,79.49
2017-09-08T04:18:29.740Z,79.3
2017-09-08T04:19:10.277Z,79.3
2017-09-08T04:19:50.845Z,79.39
2017-09-08T04:20:31.389Z,79.3
2017-09-08T04:21:11.929Z,79.49
2017-09-08T04:21:52.504Z,79.49
2017-09-08T04:22:33.014Z,79.3
2017-09-08T04:23:13.574Z,79.11
2017-09-08T04:23:54.132Z,78.82
2017-09-08T04:24:34.693Z,79.01
2017-09-08T04:25:15.257Z,78.72
2017-09-08T04:25:55.805Z,79.01
2017-09-08T04:26:36.387Z,78.72
2017-09-08T04:27:16.951Z,78.63
2017-09-08T04:27:57.511Z,79.49
2017-09-08T04:28:38.074Z,78.63
2017-09-08T04:29:18.647Z,78.63
2017-09-08T04:29:59.172Z,78.82
2017-09-08T04:30:39.687Z,78.72
2017-09-08T04:31:20.234Z,79.39
2017-09-08T04:32:00.773Z,79.11
2017-09-08T04:32:41.327Z,79.39
2017-09-08T04:33:21.891Z,79.49
2017-09-08T04:34:02.452Z,79.59
2017-09-08T04:34:43.013Z,79.68
2017-09-08T04:35:23.578Z,79.49
2017-09-08T04:36:04.168Z,79.39
2017-09-08T04:36:44.678Z,79.39
2017-09-08T04:37:25.232Z,79.45
2017-09-08T04:38:05.769Z,79.64
2017-09-08T04:38:46.325Z,80.03
2017-09-08T04:39:26.910Z,80.79
2017-09-08T04:40:07.443Z,80.79
2017-09-08T04:40:47.991Z,80.99
2017-09-08T04:41:28.538Z,80.89
2017-09-08T04:42:09.101Z,80.12
2017-09-08T04:42:49.673Z,80.41
2017-09-08T04:43:30.231Z,79.93
2017-09-08T04:44:10.774Z,79.93
2017-09-08T04:44:51.328Z,80.32
2017-09-08T04:45:31.887Z,80.51
2017-09-08T04:46:12.458Z,80.03
2017-09-08T04:46:53.018Z,80.12
2017-09-08T04:47:33.569Z,80.7
2017-09-08T04:48:14.158Z,80.79
2017-09-08T04:48:54.694Z,80.79
2017-09-08T04:49:35.259Z,80.79
2017-09-08T04:50:15.820Z,80.99
2017-09-08T04:50:56.377Z,81.37
2017-09-08T04:51:36.936Z,81.66
2017-09-08T04:52:17.494Z,81.08
2017-09-08T04:52:58.048Z,81.46
2017-09-08T04:53:38.616Z,81.33
2017-09-08T04:54:19.205Z,81.66
2017-09-08T04:54:59.730Z,81.46
2017-09-08T04:55:40.289Z,81.27
2017-09-08T04:56:20.846Z,81.56
2017-09-08T04:57:01.416Z,81.56
2017-09-08T04:57:41.937Z,81.66
2017-09-08T04:58:22.512Z,80.99
2017-09-08T04:59:03.063Z,80.99
2017-09-08T04:59:43.617Z,80.89
2017-09-08T05:00:24.154Z,81.18
2017-09-08T05:01:04.788Z,80.79
2017-09-08T05:01:53.165Z,80.51
2017-09-08T05:02:33.713Z,80.79
2017-09-08T05:03:14.477Z,80.89
2017-09-08T05:03:55.692Z,80.51
2017-09-08T05:04:36.441Z,80.32
2017-09-08T05:05:16.968Z,80.22
2017-09-08T05:05:57.527Z,80.12
2017-09-08T05:06:38.173Z,80.41
2017-09-08T05:07:18.701Z,80.79
2017-09-08T05:07:59.287Z,80.89
2017-09-08T05:08:40.155Z,80.79
2017-09-08T05:09:20.532Z,80.51
2017-09-08T05:10:01.111Z,80.41
2017-09-08T05:10:41.626Z,80.35
2017-09-08T05:11:22.177Z,80.79
2017-09-08T05:12:02.728Z,81.18
2017-09-08T05:12:43.289Z,80.79
2017-09-08T05:13:23.860Z,80.6
2017-09-08T05:14:04.419Z,80.99
2017-09-08T05:14:44.942Z,80.99
2017-09-08T05:15:25.499Z,80.99
2017-09-08T05:16:06.235Z,81.08
2017-09-08T05:16:46.808Z,80.64
2017-09-08T05:17:27.478Z,80.83
2017-09-08T05:18:08.013Z,80.74
2017-09-08T05:18:48.611Z,80.26
2017-09-08T05:19:29.192Z,81.41
2017-09-08T05:20:09.754Z,84
2017-09-08T05:20:50.320Z,85.63
2017-09-08T05:21:30.890Z,84.67
2017-09-08T05:22:11.450Z,83.33
2017-09-08T05:22:52.020Z,83.42
2017-09-08T05:23:32.613Z,85.15
2017-09-08T05:24:13.160Z,85.38
2017-09-08T05:24:53.728Z,86.54
2017-09-08T05:25:34.300Z,87.11
2017-09-08T05:26:14.848Z,90.66
2017-09-08T05:26:55.439Z,90.66
2017-09-08T05:27:35.968Z,89.22
2017-09-08T05:28:16.538Z,90.47
2017-09-08T05:28:57.086Z,90.85
2017-09-08T05:29:37.660Z,91.19
2017-09-08T05:30:18.215Z,89.65
2017-09-08T05:30:58.773Z,88.02
2017-09-08T05:31:39.350Z,88.11
2017-09-08T05:32:19.895Z,87.54
2017-09-08T05:33:00.537Z,87.44
2017-09-08T05:33:41.097Z,89.84
2017-09-08T05:34:21.649Z,89.65
2017-09-08T05:35:02.235Z,88.4
2017-09-08T05:35:42.801Z,90.8
2017-09-08T05:36:23.445Z,90.84
2017-09-08T05:37:04.029Z,89.17
2017-09-08T05:37:44.582Z,88.35
2017-09-08T05:38:25.138Z,88.25
2017-09-08T05:39:05.702Z,82.74
2017-09-08T05:39:46.263Z,83.6
2017-09-08T05:40:26.823Z,83.8
2017-09-08T05:41:07.399Z,85.33
2017-09-08T05:41:47.955Z,84.66
2017-09-08T05:42:28.522Z,83.89
2017-09-08T05:43:09.091Z,83.6
2017-09-08T05:43:49.688Z,81.78
2017-09-08T05:44:30.260Z,83.12
2017-09-08T05:45:10.809Z,83.03
2017-09-08T05:45:51.396Z,82.64
2017-09-08T05:46:31.951Z,81.87
2017-09-08T05:47:12.498Z,82.74
2017-09-08T05:47:53.051Z,82.45
2017-09-08T05:48:33.593Z,82.74
2017-09-08T05:49:14.134Z,83.51
2017-09-08T05:49:54.713Z,82.84
2017-09-08T05:50:35.248Z,83.41
2017-09-08T05:51:15.809Z,83.51
2017-09-08T05:51:56.361Z,83.6
2017-09-08T05:52:36.919Z,83.51
2017-09-08T05:53:17.518Z,83.98
2017-09-08T05:53:58.084Z,82.84
2017-09-08T05:54:38.646Z,81.78
2017-09-08T05:55:19.209Z,80.34
2017-09-08T05:55:59.777Z,82.45
2017-09-08T05:56:40.366Z,83.03
2017-09-08T05:57:20.936Z,82.4
2017-09-08T05:58:01.491Z,82.49
2017-09-08T05:58:42.195Z,82.3
2017-09-08T05:59:22.745Z,80.76
2017-09-08T06:00:03.303Z,80.96
2017-09-08T06:00:43.871Z,82.3
2017-09-08T06:01:24.458Z,81.63
2017-09-08T06:02:05.007Z,81.24
2017-09-08T06:02:45.670Z,79.71
2017-09-08T06:03:26.228Z,81.05
2017-09-08T06:04:06.799Z,80.28
2017-09-08T06:04:47.354Z,81.63
2017-09-08T06:05:27.904Z,83.36
2017-09-08T06:06:08.406Z,83.45
2017-09-08T06:06:48.930Z,85.75
2017-09-08T06:07:29.529Z,86.24
2017-09-08T06:08:10.084Z,88.1
2017-09-08T06:08:50.655Z,88.3
2017-09-08T06:09:31.261Z,82.68
2017-09-08T06:10:11.810Z,82.68
2017-09-08T06:10:52.414Z,82.24
2017-09-08T06:11:32.976Z,78.17
2017-09-08T06:12:13.540Z,81.24
2017-09-08T06:12:54.096Z,84.74
2017-09-08T06:13:34.643Z,84.36
2017-09-08T06:14:15.214Z,88.49
2017-09-08T06:14:55.775Z,88.49
2017-09-08T06:15:36.340Z,88.01
2017-09-08T06:16:16.901Z,85.61
2017-09-08T06:16:57.480Z,86.85
2017-09-08T06:17:38.027Z,89.45
2017-09-08T06:18:18.622Z,93.87
2017-09-08T06:18:59.163Z,95.31
2017-09-08T06:19:39.732Z,91.85
2017-09-08T06:20:20.292Z,94.3
2017-09-08T06:21:00.874Z,94.21
2017-09-08T06:21:41.420Z,95.75
2017-09-08T06:22:21.900Z,94.88
2017-09-08T06:23:02.430Z,93.63
2017-09-08T06:23:42.950Z,92.96
2017-09-08T06:24:23.531Z,91.52
2017-09-08T06:25:04.031Z,88.24
2017-09-08T06:25:44.586Z,94.01
2017-09-08T06:26:25.084Z,94.01
2017-09-08T06:27:05.688Z,89.3
2017-09-08T06:27:46.202Z,94.49
2017-09-08T06:28:26.773Z,94.45
2017-09-08T06:29:07.340Z,94.64
2017-09-08T06:29:47.843Z,92.04
2017-09-08T06:30:28.386Z,93.87
2017-09-08T06:31:08.987Z,91.08
2017-09-08T06:31:49.486Z,92.13
2017-09-08T06:32:30.056Z,89.83
2017-09-08T06:33:10.607Z,90.79
2017-09-08T06:33:51.182Z,88.87
2017-09-08T06:34:31.749Z,89.78
2017-09-08T06:35:12.285Z,91.22
2017-09-08T06:35:52.847Z,88.44
2017-09-08T06:36:33.388Z,87.19
2017-09-08T06:37:13.939Z,86.61
2017-09-08T06:37:54.491Z,84.4
2017-09-08T06:38:35.066Z,85.75
2017-09-08T06:39:15.585Z,86.32
2017-09-08T06:39:56.147Z,85.46
2017-09-08T06:40:36.740Z,85.89
2017-09-08T06:41:17.274Z,83.59
2017-09-08T06:41:57.803Z,80.51
2017-09-08T06:42:38.347Z,83.2
2017-09-08T06:43:18.898Z,85.46
2017-09-08T06:43:59.454Z,86.38
2017-09-08T06:44:40.028Z,86.99
2017-09-08T06:45:20.544Z,87.29
2017-09-08T06:46:01.103Z,85.36
2017-09-08T06:46:41.641Z,84.21
2017-09-08T06:47:22.225Z,84.69
2017-09-08T06:48:02.819Z,84.17
2017-09-08T06:48:43.398Z,84.5
2017-09-08T06:49:23.946Z,83.4
2017-09-08T06:50:04.503Z,83.2
2017-09-08T06:50:45.067Z,78.69
2017-09-08T06:51:25.643Z,80.99
2017-09-08T06:52:06.202Z,81.67
2017-09-08T06:52:46.774Z,81.52
2017-09-08T06:53:27.357Z,84.11
2017-09-08T06:54:07.914Z,79.65
2017-09-08T06:54:48.488Z,81.28
2017-09-08T06:55:29.040Z,86.22
2017-09-08T06:56:09.587Z,84.01
2017-09-08T06:56:50.197Z,85.84
2017-09-08T06:57:30.713Z,88.96
2017-09-08T06:58:11.273Z,85.98
2017-09-08T06:58:51.770Z,89.64
2017-09-08T06:59:32.352Z,88
2017-09-08T07:00:12.878Z,90.89
2017-09-08T07:00:53.406Z,90.69
2017-09-08T07:01:33.988Z,90.93
2017-09-08T07:02:14.516Z,83.96
2017-09-08T07:02:55.030Z,86.65
2017-09-08T07:03:35.642Z,90.73
2017-09-08T07:04:16.168Z,89.68
2017-09-08T07:04:56.760Z,85.74
2017-09-08T07:05:37.303Z,88.53
2017-09-08T07:06:17.879Z,89.49
2017-09-08T07:06:58.438Z,88.33
2017-09-08T07:07:39.922Z,88.53
2017-09-08T07:08:20.463Z,88.14
2017-09-08T07:09:01.019Z,85.87
2017-09-08T07:09:41.578Z,79.77
2017-09-08T07:10:22.083Z,81.7
2017-09-08T07:11:02.640Z,84.72
2017-09-08T07:11:43.187Z,83.75
2017-09-08T07:12:23.729Z,87.32
2017-09-08T07:13:04.277Z,91.84
2017-09-08T07:13:44.802Z,84.72
2017-09-08T07:14:25.334Z,82.21
2017-09-08T07:15:05.947Z,90.59
2017-09-08T07:15:46.484Z,92.32
2017-09-08T07:16:27.029Z,87.41
2017-09-08T07:17:07.559Z,85.58
2017-09-08T07:17:48.082Z,85.78
2017-09-08T07:18:28.647Z,88.38
2017-09-08T07:19:09.189Z,90.69
2017-09-08T07:19:49.714Z,89.63
2017-09-08T07:20:30.256Z,79.81
2017-09-08T07:21:10.819Z,85.58
2017-09-08T07:21:51.396Z,74.29
2017-09-08T07:22:31.927Z,84.1
2017-09-08T07:23:12.461Z,82.41
2017-09-08T07:23:53.057Z,85.78
2017-09-08T07:24:33.562Z,75.54
2017-09-08T07:25:14.099Z,81.35
2017-09-08T07:25:54.643Z,83.08
2017-09-08T07:26:35.183Z,73.61
2017-09-08T07:27:15.754Z,73.42
2017-09-08T07:27:56.269Z,83.37
2017-09-08T07:28:36.855Z,76.44
2017-09-08T07:29:17.377Z,73.03
2017-09-08T07:29:57.917Z,76.69
2017-09-08T07:30:38.519Z,77.08
2017-09-08T07:31:19.074Z,78.9
2017-09-08T07:31:59.553Z,78.71
2017-09-08T07:32:40.136Z,78.08
2017-09-08T07:33:20.689Z,77.56
2017-09-08T07:34:01.254Z,75.44
2017-09-08T07:34:41.781Z,78.65
2017-09-08T07:35:22.339Z,82.02
2017-09-08T07:36:02.866Z,75.05
2017-09-08T07:36:43.462Z,76.31
2017-09-08T07:37:23.967Z,79.13
2017-09-08T07:38:04.524Z,75.67
2017-09-08T07:38:45.059Z,74.32
2017-09-08T07:39:25.589Z,72.39
2017-09-08T07:40:06.123Z,75.48
2017-09-08T07:40:46.682Z,73.74
2017-09-08T07:41:27.224Z,74.32
2017-09-08T07:42:07.766Z,71.43
2017-09-08T07:42:48.323Z,77.4
2017-09-08T07:43:28.859Z,80.58
2017-09-08T07:44:09.411Z,81.83
2017-09-08T07:44:50.050Z,82.06
2017-09-08T07:45:30.584Z,77.01
2017-09-08T07:46:11.121Z,72.59
2017-09-08T07:46:51.654Z,81.01
2017-09-08T07:47:32.208Z,82.93
2017-09-08T07:48:12.737Z,83.61
2017-09-08T07:48:53.294Z,84.47
2017-09-08T07:49:33.820Z,82.06
2017-09-08T07:50:14.335Z,74.45
2017-09-08T07:50:54.888Z,71.85
2017-09-08T07:51:35.430Z,75.8
2017-09-08T07:52:15.970Z,82.83
2017-09-08T07:52:56.540Z,77.25
2017-09-08T07:53:37.098Z,77.15
2017-09-08T07:54:17.679Z,80.62
2017-09-08T07:54:58.216Z,84.18
2017-09-08T07:55:38.770Z,75.13
2017-09-08T07:56:19.304Z,82.45
2017-09-08T07:56:59.897Z,83.89
2017-09-08T07:57:40.425Z,73.01
2017-09-08T07:58:20.971Z,82.83
2017-09-08T07:59:01.532Z,83.51
2017-09-08T07:59:42.076Z,76.48
2017-09-08T08:00:22.636Z,74.74
2017-09-08T08:01:03.196Z,73.68
2017-09-08T08:01:43.764Z,82.64
2017-09-08T08:02:24.318Z,84.47
2017-09-08T08:03:04.881Z,81.01
2017-09-08T08:03:45.440Z,75.42
2017-09-08T08:04:26.006Z,74.45
2017-09-08T08:05:06.551Z,72.91
2017-09-08T08:05:47.127Z,78.21
2017-09-08T08:06:27.696Z,79.69
2017-09-08T08:07:08.258Z,80.81
2017-09-08T08:07:48.807Z,84.03
2017-09-08T08:08:29.381Z,77.06
2017-09-08T08:09:09.941Z,69.25
2017-09-08T08:09:50.512Z,77.25
2017-09-08T08:10:31.088Z,78.69
2017-09-08T08:11:11.627Z,73.1
2017-09-08T08:11:52.200Z,79.31
2017-09-08T08:12:32.730Z,81.91
2017-09-08T08:13:13.280Z,81.62
2017-09-08T08:13:53.946Z,74.97
2017-09-08T08:14:34.425Z,74.2
2017-09-08T08:15:14.933Z,68.61
2017-09-08T08:15:55.501Z,71.12
2017-09-08T08:16:36.063Z,71.31
2017-09-08T08:17:16.629Z,76.9
2017-09-08T08:17:57.190Z,78.34
2017-09-08T08:18:37.772Z,76.8
2017-09-08T08:19:18.319Z,76.8
2017-09-08T08:19:58.879Z,78.25
2017-09-08T08:20:39.482Z,73.05
2017-09-08T08:21:20.005Z,74.97
2017-09-08T08:22:00.523Z,77.76
2017-09-08T08:22:41.046Z,78.34
2017-09-08T08:23:21.585Z,72.56
2017-09-08T08:24:02.152Z,76.32
2017-09-08T08:24:42.703Z,74.88
2017-09-08T08:25:23.301Z,74.2
2017-09-08T08:26:03.847Z,75.26
2017-09-08T08:26:44.368Z,77.67
2017-09-08T08:27:24.926Z,78.25
2017-09-08T08:28:05.499Z,74.01
2017-09-08T08:28:46.085Z,71.12
2017-09-08T08:29:26.672Z,71.89
2017-09-08T08:30:07.228Z,73.24
2017-09-08T08:30:47.794Z,77.58
2017-09-08T08:31:28.345Z,82.62
2017-09-08T08:32:08.901Z,82.43
2017-09-08T08:32:49.457Z,82.24
2017-09-08T08:33:30.029Z,83.88
2017-09-08T08:34:10.576Z,79.06
2017-09-08T08:34:51.106Z,69.51
2017-09-08T08:35:31.668Z,74.05
2017-09-08T08:36:12.231Z,82.72
2017-09-08T08:36:52.803Z,84.46
2017-09-08T08:37:33.346Z,84.41
2017-09-08T08:38:13.894Z,82.48
2017-09-08T08:38:54.434Z,84.5
2017-09-08T08:39:34.997Z,86.82
2017-09-08T08:40:15.517Z,85.46
2017-09-08T08:40:56.087Z,84.44
2017-09-08T08:41:36.623Z,83.87
2017-09-08T08:42:17.121Z,74.08
2017-09-08T08:42:57.691Z,75.82
2017-09-08T08:43:38.237Z,71.58
2017-09-08T08:44:18.842Z,75.43